Time;durP1;ratioP1;P1;durP2;ratioP2;P2;SDS_P1;SDS_P2;PMS_P1;PMS_P2;Temp;Humidity;BMP_temperature;BMP_pressure;BME280_temperature;BME280_humidity;BME280_pressure;Samples;Min_cycle;Max_cycle;Signal;HPM_P1;HPM_P2
2022/03/18 00:02:14;;;;;;;;;23.00;17.75;;;;;7.90;62.34;103528.72;4990296;28;49855;-70
2022/03/18 00:04:40;;;;;;;;;26.00;19.75;;;;;7.83;61.48;103524.75;4990371;28;49683;-70
2022/03/18 00:07:07;;;;;;;;;23.50;22.25;;;;;7.88;60.71;103523.38;4990770;28;50130;-69
2022/03/18 00:09:32;;;;;;;;;20.75;19.00;;;;;7.81;60.90;103507.09;4990472;28;50501;-70
2022/03/18 00:11:58;;;;;;;;;25.00;20.50;;;;;7.75;60.98;103490.16;4990448;28;49979;-70
2022/03/18 00:14:23;;;;;;;;;19.75;17.50;;;;;7.85;60.86;103509.16;4990328;28;49807;-69
2022/03/18 00:16:49;;;;;;;;;18.25;18.00;;;;;7.84;60.58;103504.75;4990201;28;50017;-69
2022/03/18 00:19:15;;;;;;;;;21.50;20.00;;;;;7.86;60.83;103506.66;4989930;28;49710;-69
2022/03/18 00:21:40;;;;;;;;;13.75;12.50;;;;;7.80;60.10;103498.34;4990020;28;49744;-69
2022/03/18 00:24:06;;;;;;;;;19.25;12.75;;;;;7.81;58.33;103505.38;4990551;28;49557;-69
2022/03/18 00:26:32;;;;;;;;;13.25;12.50;;;;;7.89;58.66;103517.34;4990557;28;49798;-69
2022/03/18 00:28:58;;;;;;;;;11.75;11.00;;;;;7.89;58.61;103519.06;4990288;28;49865;-70
2022/03/18 00:31:23;;;;;;;;;15.00;11.00;;;;;7.89;59.07;103525.19;4990098;28;49992;-69
2022/03/18 00:33:49;;;;;;;;;4.75;4.75;;;;;7.78;58.56;103513.03;4990016;28;49758;-69
2022/03/18 00:36:14;;;;;;;;;14.50;13.50;;;;;7.85;58.17;103523.16;4990220;28;49899;-69
2022/03/18 00:38:39;;;;;;;;;13.50;11.75;;;;;7.67;58.00;103498.22;4989804;28;51687;-69
2022/03/18 00:41:05;;;;;;;;;14.00;11.00;;;;;7.69;58.28;103497.53;4990711;28;50074;-69
2022/03/18 00:43:31;;;;;;;;;14.00;12.25;;;;;7.84;58.39;103525.66;4993804;28;50012;-69
2022/03/18 00:45:56;;;;;;;;;10.50;10.25;;;;;7.80;58.04;103523.59;4993541;28;49859;-69
2022/03/18 00:53:52;;;;;;;;;15.25;12.25;;;;;7.74;59.38;103530.19;4993410;28;49821;-69
2022/03/18 00:56:17;;;;;;;;;16.25;13.75;;;;;7.70;59.47;103529.81;4993437;28;49691;-69
2022/03/18 00:58:43;;;;;;;;;12.50;12.50;;;;;7.68;58.62;103526.19;4993191;28;50072;-69
2022/03/18 01:01:08;;;;;;;;;16.00;12.25;;;;;7.69;58.72;103520.16;4992918;28;49777;-69
2022/03/18 01:03:34;;;;;;;;;13.00;10.75;;;;;7.68;58.82;103516.63;4993245;28;49937;-69
2022/03/18 01:05:59;;;;;;;;;14.00;13.75;;;;;7.37;58.53;103466.34;4993535;28;49675;-69
2022/03/18 01:08:25;;;;;;;;;12.50;10.00;;;;;7.65;59.39;103518.13;4992986;28;52260;-69
2022/03/18 01:10:50;;;;;;;;;12.00;11.00;;;;;7.45;59.10;103486.13;4993020;28;49886;-70
2022/03/18 01:13:16;;;;;;;;;10.00;7.50;;;;;7.16;59.43;103456.84;4975226;28;49954;-69
2022/03/18 01:15:41;;;;;;;;;14.00;11.25;;;;;7.56;60.23;103520.94;4992736;28;49957;-69
2022/03/18 01:18:06;;;;;;;;;14.50;13.50;;;;;7.54;60.46;103532.06;4992824;28;49771;-69
2022/03/18 01:20:32;;;;;;;;;14.25;12.50;;;;;7.44;60.33;103520.00;4992786;28;49922;-69
2022/03/18 01:22:57;;;;;;;;;15.00;14.00;;;;;7.47;60.43;103536.81;4993095;28;49722;-69
2022/03/18 01:25:23;;;;;;;;;16.00;15.25;;;;;7.44;60.54;103530.44;4993201;28;49797;-69
2022/03/18 01:27:48;;;;;;;;;16.50;14.75;;;;;7.35;60.86;103525.41;4992724;28;50595;-69
2022/03/18 01:30:14;;;;;;;;;16.25;15.50;;;;;7.28;60.86;103530.94;4992442;28;49818;-69
2022/03/18 01:32:40;;;;;;;;;16.75;15.25;;;;;7.28;61.44;103524.81;4992694;28;49914;-70
2022/03/18 01:35:06;;;;;;;;;19.00;15.25;;;;;7.24;61.41;103539.34;4993034;28;49716;-70
2022/03/18 01:37:31;;;;;;;;;18.00;15.50;;;;;7.27;61.48;103544.81;4992460;28;49738;-71
2022/03/18 01:39:57;;;;;;;;;15.50;14.00;;;;;7.19;61.48;103535.44;4992778;28;49718;-71
2022/03/18 01:42:23;;;;;;;;;18.75;17.50;;;;;7.15;61.84;103529.09;4974943;28;49734;-70
2022/03/18 01:44:48;;;;;;;;;17.25;13.25;;;;;7.17;61.94;103542.28;4974907;28;49879;-69
2022/03/18 01:47:14;;;;;;;;;15.00;13.00;;;;;7.14;62.00;103542.00;4974184;28;52082;-69
2022/03/18 01:49:39;;;;;;;;;16.50;16.00;;;;;7.08;61.52;103542.44;4992492;28;50015;-69
2022/03/18 01:52:07;;;;;;;;;18.25;18.25;;;;;7.08;62.45;103546.75;4992282;28;50331;-69
2022/03/18 01:54:45;;;;;;;;;13.50;13.50;;;;;6.93;62.58;103530.78;4992169;28;49745;-69
2022/03/18 01:57:11;;;;;;;;;15.75;14.75;;;;;7.03;62.61;103545.47;4992356;28;49853;-69
2022/03/18 01:59:37;;;;;;;;;16.25;16.25;;;;;7.00;62.74;103545.25;4992270;28;50138;-69
2022/03/18 02:02:03;;;;;;;;;10.75;10.75;;;;;6.79;62.32;103519.25;4992324;28;50060;-68
2022/03/18 02:04:29;;;;;;;;;15.00;14.00;;;;;6.88;62.96;103543.47;4992265;28;49938;-69
2022/03/18 02:06:55;;;;;;;;;17.00;15.00;;;;;6.91;62.79;103547.13;4991931;28;50620;-69
2022/03/18 02:09:20;;;;;;;;;19.25;16.00;;;;;6.47;62.92;103482.72;4992078;28;49569;-70
2022/03/18 02:11:46;;;;;;;;;16.25;16.25;;;;;6.89;63.28;103557.44;4992224;28;49622;-70
2022/03/18 02:14:12;;;;;;;;;20.75;18.50;;;;;6.83;63.23;103550.00;4974711;28;49874;-69
2022/03/18 02:16:39;;;;;;;;;23.00;20.00;;;;;6.85;63.25;103555.34;4991669;28;49800;-69
2022/03/18 02:19:05;;;;;;;;;20.00;19.00;;;;;6.83;63.36;103552.63;4992042;28;49893;-68
2022/03/18 02:21:31;;;;;;;;;15.25;15.25;;;;;6.81;63.44;103554.22;4991980;28;50305;-70
2022/03/18 02:23:58;;;;;;;;;21.50;20.50;;;;;6.80;63.71;103560.22;4992118;28;49808;-69
2022/03/18 02:26:23;;;;;;;;;27.25;20.00;;;;;6.79;63.50;103554.88;4990417;28;50029;-69
2022/03/18 02:28:48;;;;;;;;;27.25;21.50;;;;;6.57;64.16;103507.88;4990101;28;49843;-70
2022/03/18 02:31:14;;;;;;;;;27.25;24.00;;;;;6.77;63.79;103540.81;4989913;28;49962;-70
2022/03/18 02:33:39;;;;;;;;;21.00;20.00;;;;;6.75;63.99;103537.13;4972622;28;50002;-70
2022/03/18 02:36:05;;;;;;;;;16.25;15.50;;;;;6.62;64.12;103524.81;4989983;28;50346;-69
2022/03/18 02:38:31;;;;;;;;;22.50;18.75;;;;;6.70;63.68;103535.88;4972438;28;49993;-69
2022/03/18 02:40:56;;;;;;;;;24.00;20.50;;;;;6.49;64.06;103503.72;4989987;28;49700;-69
2022/03/18 02:43:22;;;;;;;;;26.25;19.50;;;;;6.40;64.35;103498.69;4991158;28;49584;-70
2022/03/18 02:45:47;;;;;;;;;19.75;17.25;;;;;6.47;64.43;103505.31;4991222;28;50367;-70
2022/03/18 02:48:12;;;;;;;;;19.75;18.75;;;;;6.42;64.24;103509.22;4991606;28;49759;-69
2022/03/18 02:50:37;;;;;;;;;25.75;23.25;;;;;6.59;64.64;103545.44;4991655;28;49811;-69
2022/03/18 02:53:03;;;;;;;;;24.00;20.00;;;;;6.53;64.42;103545.84;4991750;28;50252;-69
2022/03/18 02:55:29;;;;;;;;;18.50;18.25;;;;;6.51;65.05;103547.44;4991426;28;50703;-69
2022/03/18 02:57:54;;;;;;;;;23.50;21.00;;;;;6.55;64.75;103551.19;4991292;28;49790;-69
2022/03/18 03:00:25;;;;;;;;;19.75;18.75;;;;;6.52;64.68;103557.06;4973383;28;50008;-69
2022/03/18 03:02:50;;;;;;;;;32.00;24.00;;;;;6.52;64.72;103553.56;4991655;28;49878;-69
2022/03/18 03:07:59;;;;;;;;;29.50;28.00;;;;;6.50;64.98;103552.53;4991471;28;49780;-70
2022/03/18 03:10:30;;;;;;;;;26.25;19.50;;;;;6.49;65.14;103543.78;4991289;28;49762;-69
2022/03/18 03:13:01;;;;;;;;;29.50;27.00;;;;;6.45;65.35;103543.38;4991438;28;49814;-69
2022/03/18 03:15:27;;;;;;;;;23.25;21.75;;;;;6.40;64.83;103553.47;4990733;28;50582;-69
2022/03/18 03:17:53;;;;;;;;;21.25;21.25;;;;;6.45;65.54;103556.44;4991002;28;49846;-69
2022/03/18 03:20:19;;;;;;;;;26.00;25.75;;;;;6.37;65.08;103562.72;4990953;28;49774;-69
2022/03/18 03:22:44;;;;;;;;;24.75;22.75;;;;;6.46;64.91;103563.47;4991117;28;50415;-69
2022/03/18 03:25:09;;;;;;;;;26.00;24.25;;;;;6.45;65.46;103578.22;4991076;28;49762;-69
2022/03/18 03:27:35;;;;;;;;;36.25;28.25;;;;;6.44;65.26;103575.50;4991047;28;49792;-69
2022/03/18 03:30:04;;;;;;;;;36.00;31.00;;;;;6.44;65.29;103573.78;4990816;28;49744;-69
2022/03/18 03:32:29;;;;;;;;;33.50;30.25;;;;;6.22;64.69;103544.13;4991220;28;49815;-69
2022/03/18 03:34:57;;;;;;;;;35.50;27.25;;;;;6.45;65.06;103583.44;4990683;28;50654;-70
2022/03/18 03:37:23;;;;;;;;;27.50;22.50;;;;;6.23;64.93;103533.81;4990669;28;49702;-69
2022/03/18 03:39:50;;;;;;;;;22.25;20.75;;;;;6.50;64.65;103576.91;4990921;28;49981;-69
2022/03/18 03:42:17;;;;;;;;;33.25;29.50;;;;;6.52;65.00;103574.44;4990896;28;49890;-69
2022/03/18 03:44:42;;;;;;;;;27.75;24.75;;;;;6.51;64.84;103570.91;4990390;28;50456;-69
2022/03/18 03:47:08;;;;;;;;;29.25;28.75;;;;;6.52;65.00;103585.78;4973115;28;49585;-69
2022/03/18 03:49:33;;;;;;;;;27.50;23.25;;;;;6.52;64.69;103577.03;4990896;28;49843;-70
2022/03/18 03:51:59;;;;;;;;;27.75;24.25;;;;;6.47;64.83;103570.56;4990707;28;49881;-69
2022/03/18 03:54:27;;;;;;;;;24.75;22.00;;;;;6.50;64.25;103571.69;4990357;28;49798;-69
2022/03/18 03:56:53;;;;;;;;;29.50;27.50;;;;;6.37;64.73;103548.00;4990473;28;49695;-70
2022/03/18 03:59:18;;;;;;;;;25.50;25.50;;;;;6.53;64.61;103577.16;4990563;28;49690;-69
2022/03/18 04:01:43;;;;;;;;;25.50;25.25;;;;;6.45;64.15;103575.63;4990411;28;50191;-70
2022/03/18 04:04:08;;;;;;;;;28.75;27.50;;;;;6.42;64.36;103564.03;4990300;28;50707;-70
2022/03/18 04:06:34;;;;;;;;;27.25;27.00;;;;;6.50;63.95;103586.44;4990400;28;49605;-70
2022/03/18 04:08:59;;;;;;;;;32.00;29.00;;;;;6.54;64.31;103593.72;4990484;28;49969;-70
2022/03/18 04:11:25;;;;;;;;;33.25;30.25;;;;;6.49;64.34;103582.94;4990561;28;49815;-70
2022/03/18 04:13:50;;;;;;;;;35.00;31.75;;;;;6.50;64.44;103605.63;4990154;28;50391;-70
2022/03/18 04:16:15;;;;;;;;;28.50;25.00;;;;;6.51;63.98;103598.72;4992597;28;49947;-70
2022/03/18 04:18:41;;;;;;;;;31.00;27.75;;;;;6.50;64.54;103605.63;4996957;28;50134;-70
2022/03/18 04:21:06;;;;;;;;;33.75;31.75;;;;;6.48;64.27;103607.22;4996989;28;49746;-70
2022/03/18 04:23:32;;;;;;;;;30.75;26.50;;;;;6.49;64.01;103609.03;4996508;28;56183;-70
2022/03/18 04:25:57;;;;;;;;;31.00;28.25;;;;;6.43;63.91;103605.91;4996750;28;51001;-70
2022/03/18 04:28:22;;;;;;;;;33.75;33.75;;;;;6.50;63.94;103623.00;4996814;28;49959;-70
2022/03/18 04:30:47;;;;;;;;;28.50;23.50;;;;;6.47;64.00;103618.44;4996598;28;49676;-69
2022/03/18 04:33:13;;;;;;;;;29.25;27.00;;;;;6.47;64.45;103625.34;4996137;28;58414;-70
2022/03/18 04:35:38;;;;;;;;;40.50;29.75;;;;;6.47;63.83;103623.66;4996523;28;50433;-70
2022/03/18 04:38:03;;;;;;;;;29.75;25.00;;;;;6.30;63.70;103600.47;4995491;28;49934;-70
2022/03/18 04:40:29;;;;;;;;;27.00;25.75;;;;;6.32;63.35;103599.78;4996687;28;49953;-70
2022/03/18 04:42:55;;;;;;;;;29.50;28.00;;;;;6.47;63.79;103633.19;4996578;28;50060;-70
2022/03/18 04:45:21;;;;;;;;;22.50;21.50;;;;;6.47;63.50;103618.44;4996315;28;49688;-70
2022/03/18 04:47:46;;;;;;;;;31.75;22.50;;;;;6.41;62.98;103615.31;4996692;28;49754;-70
2022/03/18 04:50:12;;;;;;;;;25.50;25.50;;;;;6.37;63.32;103604.47;4978614;28;49909;-70
2022/03/18 04:52:37;;;;;;;;;30.50;27.75;;;;;6.44;62.64;103622.47;4994924;28;52324;-70
2022/03/18 04:55:04;;;;;;;;;29.50;23.00;;;;;6.39;63.20;103613.38;4996600;28;49762;-69
2022/03/18 04:57:31;;;;;;;;;33.50;23.75;;;;;6.35;63.38;103612.19;4996397;28;49846;-69
2022/03/18 04:59:56;;;;;;;;;26.75;23.25;;;;;6.43;63.02;103624.16;4996401;28;49867;-69
2022/03/18 05:02:22;;;;;;;;;28.75;26.50;;;;;6.28;62.91;103604.66;4996004;28;49827;-69
2022/03/18 05:04:48;;;;;;;;;24.25;23.50;;;;;6.45;63.11;103635.63;4977528;28;49987;-69
2022/03/18 05:07:14;;;;;;;;;27.00;26.25;;;;;6.44;62.91;103636.44;4977719;28;49958;-69
2022/03/18 05:09:41;;;;;;;;;26.00;21.75;;;;;6.43;63.08;103650.25;4996041;28;49605;-70
2022/03/18 05:12:11;;;;;;;;;22.25;20.25;;;;;6.41;62.72;103640.50;4974077;28;49774;-71
2022/03/18 05:14:38;;;;;;;;;31.00;26.00;;;;;6.42;62.53;103642.31;4995499;28;49893;-70
2022/03/18 05:17:03;;;;;;;;;29.00;23.75;;;;;6.42;62.40;103647.53;4995952;28;50769;-71
2022/03/18 05:19:29;;;;;;;;;22.00;21.00;;;;;6.40;62.17;103643.88;4995905;28;49609;-71
2022/03/18 05:21:55;;;;;;;;;30.75;23.25;;;;;6.30;62.29;103630.06;4995339;28;50488;-72
2022/03/18 05:24:21;;;;;;;;;25.00;22.50;;;;;6.40;62.17;103655.22;4978005;28;49660;-70
2022/03/18 05:26:46;;;;;;;;;31.25;26.50;;;;;6.14;61.55;103608.69;4995649;28;49739;-71
2022/03/18 05:29:13;;;;;;;;;24.00;17.25;;;;;6.37;61.84;103668.03;4991648;28;49976;-71
2022/03/18 05:31:39;;;;;;;;;27.00;21.00;;;;;6.35;61.92;103663.44;4992080;28;49774;-71
2022/03/18 05:34:04;;;;;;;;;18.75;18.75;;;;;6.38;61.96;103668.94;4992716;28;50015;-71
2022/03/18 05:36:31;;;;;;;;;25.25;22.50;;;;;6.19;62.15;103636.09;4992608;28;50133;-69
2022/03/18 05:38:56;;;;;;;;;25.75;22.25;;;;;6.37;61.92;103665.44;4992717;28;49845;-70
2022/03/18 05:41:21;;;;;;;;;28.25;23.25;;;;;6.39;61.75;103663.84;4992127;28;50446;-70
2022/03/18 05:43:46;;;;;;;;;26.25;25.25;;;;;6.38;61.46;103674.16;4992022;28;49803;-69
2022/03/18 05:46:12;;;;;;;;;24.25;22.25;;;;;6.29;61.38;103643.91;4991828;28;49694;-70
2022/03/18 05:48:38;;;;;;;;;26.25;21.75;;;;;6.24;61.59;103639.06;4992470;28;49946;-70
2022/03/18 05:51:03;;;;;;;;;29.75;25.25;;;;;5.83;60.92;103568.66;4992416;28;49657;-69
2022/03/18 05:53:29;;;;;;;;;31.75;25.75;;;;;6.14;60.75;103637.38;4992520;28;49627;-70
2022/03/18 05:58:40;;;;;;;;;27.50;25.75;;;;;6.04;60.51;103613.91;4989157;28;49846;-70
2022/03/18 06:01:06;;;;;;;;;23.50;19.75;;;;;6.39;60.70;103684.72;4988518;28;49632;-70
2022/03/18 06:03:32;;;;;;;;;33.25;25.25;;;;;6.38;60.52;103676.78;4991826;28;49988;-70
2022/03/18 06:05:57;;;;;;;;;23.75;21.25;;;;;6.23;60.49;103643.38;4991946;28;50175;-70
2022/03/18 06:13:50;;;;;;;;;27.50;25.75;;;;;5.86;60.37;103592.38;4991874;28;49936;-70
2022/03/18 06:16:16;;;;;;;;;26.25;24.50;;;;;6.20;61.00;103643.13;4991549;28;49783;-69
2022/03/18 06:18:41;;;;;;;;;30.50;26.50;;;;;6.19;60.63;103651.75;4991565;28;50042;-69
2022/03/18 06:21:07;;;;;;;;;37.50;31.50;;;;;6.39;60.79;103689.03;4991236;28;51002;-68
2022/03/18 06:23:33;;;;;;;;;25.75;23.75;;;;;6.38;60.21;103688.13;4991737;28;49932;-68
2022/03/18 06:26:00;;;;;;;;;26.00;23.00;;;;;6.37;60.22;103695.78;4991817;28;49944;-69
2022/03/18 06:28:26;;;;;;;;;23.75;21.75;;;;;6.29;60.13;103672.59;4991949;28;50009;-68
2022/03/18 06:30:52;;;;;;;;;25.00;20.75;;;;;6.44;59.98;103685.09;4964236;28;51219;-68
2022/03/18 06:33:17;;;;;;;;;23.50;22.25;;;;;6.44;60.10;103675.56;4989184;28;49875;-68
2022/03/18 06:35:42;;;;;;;;;28.75;25.25;;;;;6.40;59.81;103672.59;4973258;28;50154;-68
2022/03/18 06:38:08;;;;;;;;;20.25;19.25;;;;;6.27;59.68;103639.31;4990145;28;49839;-68
2022/03/18 06:40:34;;;;;;;;;22.00;22.00;;;;;6.34;60.04;103661.63;4992206;28;49966;-68
2022/03/18 06:42:59;;;;;;;;;23.50;23.50;;;;;6.45;59.38;103658.22;4994715;28;49613;-69
2022/03/18 06:45:25;;;;;;;;;27.25;22.25;;;;;6.30;59.50;103637.91;4994000;28;49994;-69
2022/03/18 06:47:50;;;;;;;;;22.25;19.00;;;;;6.44;59.88;103662.53;4991384;28;49650;-63
2022/03/18 06:50:16;;;;;;;;;19.50;14.00;;;;;6.40;59.48;103657.84;4991659;28;51593;-66
2022/03/18 06:52:41;;;;;;;;;25.25;22.25;;;;;6.51;59.25;103674.41;4990990;28;49971;-61
2022/03/18 06:55:07;;;;;;;;;23.00;20.75;;;;;6.59;59.16;103678.56;4991206;28;49759;-60
2022/03/18 06:57:33;;;;;;;;;22.75;21.50;;;;;6.57;59.23;103673.22;4991246;28;50001;-61
2022/03/18 06:59:58;;;;;;;;;23.00;22.00;;;;;6.56;59.16;103673.06;4991130;28;50744;-63
2022/03/18 07:02:26;;;;;;;;;23.00;21.75;;;;;6.62;59.11;103684.03;4988963;28;50123;-64
2022/03/18 07:04:51;;;;;;;;;27.00;26.50;;;;;6.64;59.52;103681.53;4990974;28;49743;-66
2022/03/18 07:07:16;;;;;;;;;24.50;24.00;;;;;6.63;59.40;103683.25;4973551;28;49909;-62
2022/03/18 07:09:42;;;;;;;;;40.50;30.75;;;;;6.68;59.38;103681.94;4986636;28;51366;-62
2022/03/18 07:12:08;;;;;;;;;28.50;25.00;;;;;6.70;59.06;103689.91;4991003;28;50273;-61
2022/03/18 07:14:33;;;;;;;;;29.75;23.00;;;;;6.70;58.67;103696.03;4991432;28;50075;-63
2022/03/18 07:19:43;;;;;;;;;29.75;28.25;;;;;6.69;58.93;103682.84;4991909;28;50148;-62
2022/03/18 07:22:08;;;;;;;;;31.50;28.00;;;;;6.81;58.90;103694.31;4994879;28;50047;-62
2022/03/18 07:24:34;;;;;;;;;30.50;27.25;;;;;6.84;58.23;103695.44;4991051;28;50788;-62
2022/03/18 07:26:59;;;;;;;;;28.50;26.25;;;;;6.57;58.13;103641.00;5000430;28;50047;-62
2022/03/18 07:29:25;;;;;;;;;25.50;24.25;;;;;6.83;57.70;103685.78;4991297;28;49870;-65
2022/03/18 07:31:54;;;;;;;;;30.00;23.75;;;;;6.87;57.87;103684.38;4990651;28;49993;-60
2022/03/18 07:34:21;;;;;;;;;25.25;24.75;;;;;6.90;57.52;103679.38;4990865;28;49740;-62
2022/03/18 07:36:47;;;;;;;;;38.00;29.75;;;;;6.95;57.77;103682.38;4991068;28;49879;-62
2022/03/18 07:39:13;;;;;;;;;26.50;23.75;;;;;6.98;57.86;103680.94;4990720;28;50493;-60
2022/03/18 07:41:39;;;;;;;;;28.75;24.00;;;;;6.95;57.87;103661.47;4990861;28;49578;-62
2022/03/18 07:44:04;;;;;;;;;23.75;22.25;;;;;7.07;57.94;103692.13;4990629;28;49710;-60
2022/03/18 07:46:29;;;;;;;;;21.50;20.00;;;;;7.08;57.14;103691.34;4990548;28;49759;-60
2022/03/18 07:48:55;;;;;;;;;31.25;27.75;;;;;7.12;57.27;103696.00;4989353;28;51084;-60
2022/03/18 07:51:20;;;;;;;;;28.75;26.75;;;;;7.16;57.07;103692.88;4988792;28;49764;-60
2022/03/18 07:53:45;;;;;;;;;24.75;22.50;;;;;7.22;57.30;103704.59;4990156;28;49869;-61
2022/03/18 07:56:11;;;;;;;;;23.00;22.00;;;;;7.26;57.49;103701.47;4990836;28;49822;-62
2022/03/18 07:58:36;;;;;;;;;24.25;23.50;;;;;7.29;56.96;103702.63;4989397;28;50417;-61
2022/03/18 08:01:07;;;;;;;;;29.50;27.25;;;;;7.19;57.28;103676.53;4988607;28;49798;-60
2022/03/18 08:03:32;;;;;;;;;17.00;16.00;;;;;7.45;57.27;103694.31;4989414;28;49947;-58
2022/03/18 08:05:58;;;;;;;;;23.75;23.75;;;;;7.51;57.19;103705.25;4968691;28;49893;-61
2022/03/18 08:08:23;;;;;;;;;23.50;22.50;;;;;7.52;56.52;103685.25;4988675;28;56279;-62
2022/03/18 08:10:50;;;;;;;;;25.00;25.00;;;;;7.33;57.23;103648.88;4989101;28;49899;-59
2022/03/18 08:13:17;;;;;;;;;30.00;28.50;;;;;7.75;56.32;103711.53;4990044;28;49916;-59
2022/03/18 08:15:44;;;;;;;;;30.00;29.00;;;;;7.84;56.42;103712.25;4990271;28;50031;-60
2022/03/18 08:18:10;;;;;;;;;35.00;30.50;;;;;7.89;56.07;103712.59;4999873;28;49809;-61
2022/03/18 08:20:40;;;;;;;;;25.25;22.50;;;;;7.95;56.19;103715.72;4999170;28;49941;-61
2022/03/18 08:23:08;;;;;;;;;25.75;25.00;;;;;7.97;55.75;103707.19;5004617;28;49494;-60
2022/03/18 08:25:34;;;;;;;;;21.50;21.25;;;;;8.05;56.11;103715.63;5006718;28;49286;-61
2022/03/18 08:27:59;;;;;;;;;33.25;26.75;;;;;8.12;55.70;103719.66;5006130;28;49418;-62
2022/03/18 08:30:25;;;;;;;;;28.75;27.75;;;;;8.13;55.72;103708.41;5005587;28;49368;-62
2022/03/18 08:32:50;;;;;;;;;28.75;26.00;;;;;8.14;55.63;103704.97;5006267;28;49612;-61
2022/03/18 08:35:16;;;;;;;;;25.75;23.75;;;;;8.28;54.67;103718.31;5006510;28;49427;-60
2022/03/18 08:37:56;;;;;;;;;27.75;24.75;;;;;8.35;54.56;103729.31;5007542;28;49974;-61
2022/03/18 08:40:24;;;;;;;;;24.25;22.25;;;;;8.41;55.32;103721.94;5005967;28;49270;-60
2022/03/18 08:42:49;;;;;;;;;21.50;19.50;;;;;8.45;53.94;103730.13;4994108;28;49742;-59
2022/03/18 08:45:15;;;;;;;;;30.50;25.50;;;;;8.50;53.54;103725.25;4990079;28;49727;-60
2022/03/18 08:47:41;;;;;;;;;22.00;19.75;;;;;8.53;53.69;103715.94;4994273;28;49679;-61
2022/03/18 08:50:07;;;;;;;;;25.00;21.25;;;;;8.59;53.58;103711.16;4999007;28;49635;-61
2022/03/18 08:52:32;;;;;;;;;23.75;22.00;;;;;8.19;53.70;103622.50;4989633;28;49799;-61
2022/03/18 08:54:58;;;;;;;;;23.50;21.00;;;;;8.69;52.91;103694.44;4990212;28;50134;-62
2022/03/18 08:57:23;;;;;;;;;23.50;20.75;;;;;8.83;52.92;103708.56;4989615;28;49802;-61
2022/03/18 08:59:48;;;;;;;;;25.75;21.00;;;;;8.77;52.37;103684.50;4989502;28;49774;-62
2022/03/18 09:02:14;;;;;;;;;24.00;22.25;;;;;8.76;52.19;103672.22;4990262;28;49877;-61
2022/03/18 09:04:39;;;;;;;;;25.50;25.25;;;;;9.05;51.89;103714.56;4993107;28;49844;-61
2022/03/18 09:07:05;;;;;;;;;25.50;23.25;;;;;9.11;51.40;103709.81;4993131;28;50035;-61
2022/03/18 09:09:30;;;;;;;;;23.50;18.00;;;;;9.19;50.99;103715.63;4992811;28;49519;-61
2022/03/18 09:11:56;;;;;;;;;23.50;22.25;;;;;9.25;50.58;103710.81;4993234;28;49883;-62
2022/03/18 09:14:22;;;;;;;;;20.25;20.25;;;;;9.25;50.35;103697.69;4992404;28;50093;-61
2022/03/18 09:16:49;;;;;;;;;23.00;18.00;;;;;9.33;49.33;103700.88;4992564;28;49967;-61
2022/03/18 09:19:15;;;;;;;;;22.50;19.00;;;;;9.40;48.41;103700.53;4992715;28;49889;-60
2022/03/18 09:21:40;;;;;;;;;14.25;14.25;;;;;9.48;48.10;103719.44;4992804;28;49812;-61
2022/03/18 09:24:08;;;;;;;;;16.50;13.00;;;;;9.51;47.28;103712.69;4993269;28;49814;-61
2022/03/18 09:26:34;;;;;;;;;13.75;13.75;;;;;9.57;48.10;103710.53;4992642;28;49726;-61
2022/03/18 09:28:59;;;;;;;;;16.50;13.50;;;;;9.50;48.91;103679.41;4992667;28;49794;-61
2022/03/18 09:31:24;;;;;;;;;14.00;13.00;;;;;9.75;48.23;103714.47;4992647;28;49712;-60
2022/03/18 09:33:50;;;;;;;;;21.75;17.25;;;;;9.78;46.86;103713.75;4992808;28;49958;-60
2022/03/18 09:36:18;;;;;;;;;23.50;17.00;;;;;9.80;46.87;103700.75;4992886;28;50102;-60
2022/03/18 09:38:44;;;;;;;;;11.75;10.50;;;;;9.94;46.71;103715.75;4991642;28;49829;-60
2022/03/18 09:41:10;;;;;;;;;11.75;11.75;;;;;10.02;46.76;103723.34;4992511;28;49894;-60
2022/03/18 09:43:38;;;;;;;;;14.00;14.00;;;;;10.01;45.74;103708.41;4992688;28;49726;-60
2022/03/18 09:46:05;;;;;;;;;19.50;15.50;;;;;10.02;45.09;103696.19;4992254;28;49740;-61
2022/03/18 09:48:31;;;;;;;;;16.00;13.00;;;;;10.17;45.80;103718.28;4992466;28;49817;-60
2022/03/18 09:50:57;;;;;;;;;18.25;14.50;;;;;10.22;44.52;103722.16;4992622;28;49890;-60
2022/03/18 09:53:22;;;;;;;;;17.25;13.50;;;;;10.29;44.48;103713.91;4986197;28;49908;-60
2022/03/18 09:55:51;;;;;;;;;13.50;13.00;;;;;10.37;43.68;103713.53;4992181;28;49896;-60
2022/03/18 09:58:16;;;;;;;;;11.50;11.50;;;;;10.37;42.81;103698.66;4992388;28;50084;-60
2022/03/18 10:00:42;;;;;;;;;15.25;13.00;;;;;10.51;42.13;103705.75;4992440;28;49828;-61
2022/03/18 10:03:11;;;;;;;;;14.75;13.25;;;;;10.58;42.76;103704.47;4992415;28;49806;-60
2022/03/18 10:05:47;;;;;;;;;12.75;9.50;;;;;10.64;42.20;103715.41;4992312;28;50497;-60
2022/03/18 10:08:12;;;;;;;;;14.75;13.50;;;;;10.62;41.41;103692.47;4992366;28;50167;-61
2022/03/18 10:10:48;;;;;;;;;11.75;8.75;;;;;10.71;39.72;103712.38;4991416;28;49903;-61
2022/03/18 10:13:15;;;;;;;;;9.75;9.75;;;;;10.77;38.76;103707.53;4992038;28;49838;-60
2022/03/18 10:15:42;;;;;;;;;7.25;7.25;;;;;10.49;38.20;103652.22;4991492;28;49911;-60
2022/03/18 10:18:12;;;;;;;;;8.75;7.00;;;;;10.85;38.59;103719.47;4990833;28;49767;-60
2022/03/18 10:20:40;;;;;;;;;8.50;7.00;;;;;10.88;37.63;103711.78;4992110;28;49975;-61
2022/03/18 10:23:15;;;;;;;;;14.75;10.50;;;;;10.95;37.55;103715.72;4992270;28;49866;-64
2022/03/18 10:25:50;;;;;;;;;11.25;5.00;;;;;10.99;36.87;103706.31;4991865;28;50506;-60
2022/03/18 10:28:16;;;;;;;;;11.75;10.75;;;;;11.01;36.48;103692.47;4992043;28;49745;-60
2022/03/18 10:30:42;;;;;;;;;13.00;8.25;;;;;10.88;36.15;103653.94;4991993;28;49763;-61
2022/03/18 10:33:07;;;;;;;;;9.50;7.75;;;;;11.15;36.43;103683.75;4990773;28;49811;-61
2022/03/18 10:38:33;;;;;;;;;10.00;8.00;;;;;11.24;36.18;103678.19;4991815;28;49869;-61
2022/03/18 10:41:05;;;;;;;;;13.50;8.75;;;;;11.29;35.84;103687.31;4991044;28;49826;-60
2022/03/18 10:43:49;;;;;;;;;11.50;9.75;;;;;11.33;35.28;103678.78;4991914;28;49823;-60
2022/03/18 10:46:15;;;;;;;;;6.00;4.00;;;;;11.25;34.92;103653.72;4991290;28;51152;-60
2022/03/18 10:49:01;;;;;;;;;4.50;3.50;;;;;11.50;33.84;103681.59;4991795;28;49799;-60
2022/03/18 10:51:27;;;;;;;;;10.00;10.00;;;;;11.42;33.35;103650.44;4991717;28;49854;-60
2022/03/18 10:53:56;;;;;;;;;5.25;5.25;;;;;11.62;33.86;103669.19;4991726;28;49961;-61
2022/03/18 10:56:22;;;;;;;;;7.50;7.50;;;;;11.54;32.60;103649.38;4991487;28;51256;-60
2022/03/18 10:58:47;;;;;;;;;11.50;10.50;;;;;11.57;32.47;103658.38;4991535;28;49625;-72
2022/03/18 11:01:15;;;;;;;;;10.50;9.75;;;;;11.72;33.12;103651.44;4991563;28;49952;-61
2022/03/18 11:03:42;;;;;;;;;7.00;7.00;;;;;11.80;32.94;103662.47;4991542;28;49835;-60
2022/03/18 11:06:09;;;;;;;;;12.75;9.50;;;;;11.89;33.88;103663.06;4991197;28;49661;-61
2022/03/18 11:08:43;;;;;;;;;8.50;5.50;;;;;11.89;31.95;103675.31;4991269;28;49915;-61
2022/03/18 11:11:22;;;;;;;;;8.75;7.50;;;;;11.90;31.28;103666.59;4991567;28;49824;-60
2022/03/18 11:13:53;;;;;;;;;7.75;6.25;;;;;11.95;31.35;103660.78;4990793;28;49813;-62
2022/03/18 11:16:25;;;;;;;;;8.25;8.00;;;;;11.93;31.99;103665.03;4990988;28;50492;-60
2022/03/18 11:18:51;;;;;;;;;9.00;8.50;;;;;11.89;30.81;103646.34;4991352;28;49582;-61
2022/03/18 11:21:18;;;;;;;;;8.75;8.00;;;;;12.01;31.28;103655.00;4991201;28;49746;-61
2022/03/18 11:23:45;;;;;;;;;10.50;8.25;;;;;11.99;30.94;103661.91;4991472;28;50348;-62
2022/03/18 11:26:14;;;;;;;;;5.25;5.25;;;;;12.00;30.69;103664.63;4991370;28;51347;-66
2022/03/18 11:28:40;;;;;;;;;9.50;6.75;;;;;12.07;31.46;103655.38;4991315;28;49739;-63
2022/03/18 11:31:08;;;;;;;;;7.00;4.75;;;;;12.04;31.48;103663.97;4972771;28;49822;-64
2022/03/18 11:33:35;;;;;;;;;7.75;7.75;;;;;12.01;31.07;103642.72;4991276;28;49828;-64
2022/03/18 11:36:00;;;;;;;;;5.25;5.00;;;;;12.13;32.68;103658.34;4990819;28;49819;-62